createdAt,value
2018-09-15T00:02:22.171Z,2.05
2018-09-15T00:04:50.335Z,1.95
2018-09-15T00:07:18.473Z,2.33
2018-09-15T00:09:46.631Z,2.62
2018-09-15T00:12:14.796Z,2.62
2018-09-15T00:14:42.954Z,2.52
2018-09-15T00:17:11.682Z,2.30
2018-09-15T00:19:39.907Z,1.87
2018-09-15T00:22:08.050Z,2.25
2018-09-15T00:24:36.229Z,2.52
2018-09-15T00:27:04.419Z,2.10
2018-09-15T00:29:32.595Z,2.10
2018-09-15T00:32:00.791Z,2.08
2018-09-15T00:34:28.951Z,1.75
2018-09-15T00:36:57.104Z,3.33
2018-09-15T00:39:25.263Z,3.00
2018-09-15T00:41:53.451Z,2.90
2018-09-15T00:44:21.587Z,3.47
2018-09-15T00:46:49.786Z,3.80
2018-09-15T00:49:17.866Z,2.90
2018-09-15T00:51:46.035Z,2.70
2018-09-15T00:54:14.214Z,3.00
2018-09-15T00:56:42.379Z,3.15
2018-09-15T00:59:10.561Z,1.92
2018-09-15T01:01:38.742Z,2.37
2018-09-15T01:04:06.909Z,2.02
2018-09-15T01:06:35.100Z,2.60
2018-09-15T01:09:03.398Z,2.10
2018-09-15T01:11:31.738Z,2.25
2018-09-15T01:13:59.959Z,2.00
2018-09-15T01:16:28.071Z,2.85
2018-09-15T01:18:56.262Z,1.82
2018-09-15T01:21:24.518Z,2.85
2018-09-15T01:23:52.706Z,3.05
2018-09-15T01:26:20.866Z,2.80
2018-09-15T01:28:51.965Z,2.50
2018-09-15T01:31:22.371Z,2.80
2018-09-15T01:33:50.871Z,2.92
2018-09-15T01:36:19.050Z,2.87
2018-09-15T01:38:47.215Z,2.80
2018-09-15T01:41:15.515Z,3.17
2018-09-15T01:43:43.753Z,3.12
2018-09-15T01:46:11.914Z,3.40
2018-09-15T01:48:40.087Z,3.45
2018-09-15T01:51:08.250Z,3.75
2018-09-15T01:53:36.413Z,3.35
2018-09-15T01:56:04.567Z,3.33
2018-09-15T01:58:32.763Z,2.37
2018-09-15T02:01:00.931Z,2.70
2018-09-15T02:03:29.350Z,3.00
2018-09-15T02:05:57.938Z,3.30
2018-09-15T02:08:26.119Z,3.65
2018-09-15T02:10:54.286Z,3.33
2018-09-15T02:13:23.290Z,3.15
2018-09-15T02:15:51.503Z,2.55
2018-09-15T02:18:19.687Z,3.17
2018-09-15T02:20:47.849Z,2.75
2018-09-15T02:23:16.043Z,4.25
2018-09-15T02:25:44.226Z,3.17
2018-09-15T02:28:12.471Z,3.42
2018-09-15T02:30:40.666Z,4.12
2018-09-15T02:33:08.830Z,3.90
2018-09-15T02:35:37.006Z,3.20
2018-09-15T02:38:05.203Z,4.20
2018-09-15T02:40:33.369Z,4.15
2018-09-15T02:43:01.531Z,4.37
2018-09-15T02:45:29.711Z,4.30
2018-09-15T02:47:57.913Z,4.50
2018-09-15T02:50:26.086Z,4.25
2018-09-15T02:52:54.238Z,4.65
2018-09-15T02:55:22.395Z,4.10
2018-09-15T02:57:50.567Z,4.00
2018-09-15T03:00:18.753Z,4.60
2018-09-15T03:02:46.971Z,3.90
2018-09-15T03:05:15.366Z,4.75
2018-09-15T03:07:43.534Z,5.03
2018-09-15T03:10:11.690Z,3.65
2018-09-15T03:12:39.872Z,4.20
2018-09-15T03:15:08.087Z,5.15
2018-09-15T03:17:36.264Z,4.12
2018-09-15T03:20:05.051Z,4.80
2018-09-15T03:22:33.314Z,4.42
2018-09-15T03:25:01.523Z,5.33
2018-09-15T03:27:29.688Z,4.58
2018-09-15T03:29:57.855Z,3.67
2018-09-15T03:32:26.036Z,3.75
2018-09-15T03:34:54.202Z,4.55
2018-09-15T03:37:22.483Z,5.20
2018-09-15T03:39:50.643Z,5.17
2018-09-15T03:42:18.807Z,5.40
2018-09-15T03:44:47.006Z,4.30
2018-09-15T03:47:15.170Z,4.20
2018-09-15T03:49:43.330Z,4.87
2018-09-15T03:52:11.500Z,5.08
2018-09-15T03:54:39.653Z,5.12
2018-09-15T03:57:07.822Z,4.65
2018-09-15T03:59:35.979Z,5.90
2018-09-15T04:02:04.122Z,4.97
2018-09-15T04:04:32.267Z,6.00
2018-09-15T04:07:00.441Z,4.92
2018-09-15T04:09:28.594Z,5.03
2018-09-15T04:11:56.746Z,5.42
2018-09-15T04:14:24.896Z,5.65
2018-09-15T04:16:53.093Z,4.05
2018-09-15T04:19:21.309Z,5.60
2018-09-15T04:21:49.465Z,5.58
2018-09-15T04:24:17.611Z,5.65
2018-09-15T04:26:45.759Z,5.05
2018-09-15T04:29:13.887Z,4.72
2018-09-15T04:31:42.075Z,5.08
2018-09-15T04:34:10.246Z,5.30
2018-09-15T04:36:38.382Z,5.28
2018-09-15T04:39:08.805Z,5.35
2018-09-15T04:41:36.948Z,5.65
2018-09-15T04:44:05.133Z,6.03
2018-09-15T04:46:33.315Z,5.95
2018-09-15T04:49:01.482Z,4.75
2018-09-15T04:51:29.655Z,3.80
2018-09-15T04:53:57.820Z,4.45
2018-09-15T04:56:26.089Z,5.40
2018-09-15T04:58:54.350Z,4.87
2018-09-15T05:01:22.479Z,4.10
2018-09-15T05:03:50.666Z,4.85
2018-09-15T05:06:18.807Z,4.80
2018-09-15T05:08:47.028Z,5.28
2018-09-15T05:11:15.228Z,4.45
2018-09-15T05:13:43.382Z,3.90
2018-09-15T05:16:11.530Z,4.75
2018-09-15T05:18:39.711Z,5.20
2018-09-15T05:21:07.851Z,4.35
2018-09-15T05:23:35.989Z,4.12
2018-09-15T05:26:04.154Z,5.33
2018-09-15T05:28:32.326Z,5.87
2018-09-15T05:31:00.520Z,4.80
2018-09-15T05:33:28.734Z,5.40
2018-09-15T05:35:56.903Z,5.00
2018-09-15T05:38:25.051Z,4.83
2018-09-15T05:40:53.215Z,5.10
2018-09-15T05:43:21.362Z,5.28
2018-09-15T05:45:49.517Z,5.90
2018-09-15T05:48:17.664Z,5.30
2018-09-15T05:50:45.824Z,5.80
2018-09-15T05:53:14.022Z,5.85
2018-09-15T05:55:42.186Z,4.65
2018-09-15T05:58:10.355Z,5.22
2018-09-15T06:00:38.554Z,5.87
2018-09-15T06:03:06.755Z,5.90
2018-09-15T06:05:35.011Z,5.70
2018-09-15T06:08:03.161Z,4.20
2018-09-15T06:10:31.322Z,5.00
2018-09-15T06:12:59.483Z,5.22
2018-09-15T06:15:27.780Z,4.92
2018-09-15T06:17:55.966Z,4.60
2018-09-15T06:20:24.207Z,6.03
2018-09-15T06:22:52.399Z,3.85
2018-09-15T06:25:20.558Z,3.25
2018-09-15T06:27:48.758Z,3.42
2018-09-15T06:30:16.924Z,5.40
2018-09-15T06:32:45.115Z,4.72
2018-09-15T06:35:13.278Z,4.60
2018-09-15T06:37:41.453Z,5.83
2018-09-15T06:40:09.602Z,5.80
2018-09-15T06:42:37.759Z,5.05
2018-09-15T06:45:05.995Z,4.95
2018-09-15T06:47:34.198Z,5.58
2018-09-15T06:50:02.346Z,5.25
2018-09-15T06:52:30.574Z,4.20
2018-09-15T06:54:58.751Z,5.00
2018-09-15T06:57:26.931Z,4.58
2018-09-15T06:59:55.106Z,5.37
2018-09-15T07:02:23.259Z,5.28
2018-09-15T07:04:51.419Z,4.17
2018-09-15T07:07:19.591Z,4.40
2018-09-15T07:09:47.764Z,3.60
2018-09-15T07:12:15.945Z,3.40
2018-09-15T07:14:44.158Z,5.25
2018-09-15T07:17:12.390Z,4.08
2018-09-15T07:19:40.579Z,5.40
2018-09-15T07:22:08.771Z,5.12
2018-09-15T07:24:37.111Z,4.55
2018-09-15T07:27:05.285Z,5.42
2018-09-15T07:29:33.458Z,4.30
2018-09-15T07:32:01.678Z,5.53
2018-09-15T07:34:29.810Z,4.78
2018-09-15T07:36:57.971Z,4.85
2018-09-15T07:39:26.239Z,4.28
2018-09-15T07:41:54.402Z,4.53
2018-09-15T07:44:23.291Z,4.55
2018-09-15T07:46:51.498Z,5.17
2018-09-15T07:49:19.700Z,4.72
2018-09-15T07:51:47.875Z,4.60
2018-09-15T07:54:16.068Z,4.40
2018-09-15T07:56:44.206Z,4.20
2018-09-15T07:59:12.390Z,4.92
2018-09-15T08:01:40.534Z,4.37
2018-09-15T08:04:08.738Z,4.72
2018-09-15T08:06:36.886Z,4.03
2018-09-15T08:09:06.302Z,3.52
2018-09-15T08:11:34.757Z,4.08
2018-09-15T08:14:02.890Z,5.17
2018-09-15T08:16:31.030Z,4.30
2018-09-15T08:18:59.189Z,4.33
2018-09-15T08:21:27.346Z,3.85
2018-09-15T08:23:55.501Z,3.98
2018-09-15T08:26:23.651Z,4.55
2018-09-15T08:28:51.787Z,3.52
2018-09-15T08:31:19.980Z,4.25
2018-09-15T08:33:48.262Z,4.78
2018-09-15T08:36:16.401Z,3.40
2018-09-15T08:38:44.595Z,3.40
2018-09-15T08:41:12.751Z,3.72
2018-09-15T08:43:41.007Z,3.65
2018-09-15T08:46:09.150Z,4.00
2018-09-15T08:48:37.295Z,3.30
2018-09-15T08:51:05.473Z,4.65
2018-09-15T08:53:33.662Z,4.40
2018-09-15T08:58:35.423Z,3.12
2018-09-15T09:01:03.589Z,4.60
2018-09-15T09:03:31.758Z,3.98
2018-09-15T09:05:59.909Z,3.70
2018-09-15T09:08:28.057Z,3.77
2018-09-15T09:10:56.210Z,4.45
2018-09-15T09:13:24.390Z,3.47
2018-09-15T09:15:52.550Z,4.17
2018-09-15T09:18:20.725Z,3.02
2018-09-15T09:20:48.882Z,3.40
2018-09-15T09:23:17.058Z,4.25
2018-09-15T09:25:45.232Z,4.42
2018-09-15T09:28:13.450Z,3.77
2018-09-15T09:30:41.614Z,4.12
2018-09-15T09:33:09.827Z,3.50
2018-09-15T09:35:38.087Z,4.33
2018-09-15T09:38:06.299Z,4.03
2018-09-15T09:40:34.469Z,4.62
2018-09-15T09:43:02.643Z,4.40
2018-09-15T09:45:30.807Z,3.70
2018-09-15T09:47:59.128Z,4.72
2018-09-15T09:50:27.170Z,4.62
2018-09-15T09:52:55.383Z,3.47
2018-09-15T09:55:23.534Z,2.72
2018-09-15T09:57:51.694Z,3.67
2018-09-15T10:00:25.279Z,3.42
2018-09-15T10:02:53.459Z,2.70
2018-09-15T10:05:21.611Z,2.67
2018-09-15T10:07:49.779Z,2.50
2018-09-15T10:10:17.950Z,4.25
2018-09-15T10:12:46.129Z,3.85
2018-09-15T10:15:14.299Z,3.90
2018-09-15T10:17:42.464Z,3.20
2018-09-15T10:20:10.649Z,2.52
2018-09-15T10:22:38.803Z,2.98
2018-09-15T10:25:07.265Z,2.58
2018-09-15T10:27:35.438Z,2.45
2018-09-15T10:30:03.602Z,2.90
2018-09-15T10:32:31.770Z,2.47
2018-09-15T10:34:59.971Z,3.42
2018-09-15T10:37:28.166Z,2.33
2018-09-15T10:39:56.327Z,2.55
2018-09-15T10:42:24.515Z,2.20
2018-09-15T10:44:52.686Z,1.92
2018-09-15T10:47:20.871Z,2.15
2018-09-15T10:49:49.398Z,1.77
2018-09-15T10:52:17.592Z,1.50
2018-09-15T10:54:45.741Z,2.70
2018-09-15T10:57:13.942Z,2.87
2018-09-15T10:59:42.121Z,1.90
2018-09-15T11:02:12.822Z,1.82
2018-09-15T11:04:41.614Z,2.60
2018-09-15T11:07:09.783Z,2.55
2018-09-15T11:09:37.937Z,3.00
2018-09-15T11:12:06.136Z,2.95
2018-09-15T11:14:34.306Z,2.40
2018-09-15T11:17:02.470Z,2.30
2018-09-15T11:19:30.630Z,2.10
2018-09-15T11:21:58.786Z,2.00
2018-09-15T11:24:26.966Z,2.75
2018-09-15T11:26:55.482Z,2.30
2018-09-15T11:29:23.644Z,2.83
2018-09-15T11:31:51.819Z,2.10
2018-09-15T11:34:20.014Z,2.50
2018-09-15T11:36:48.178Z,2.40
2018-09-15T11:39:16.556Z,3.22
2018-09-15T11:41:44.775Z,2.98
2018-09-15T11:44:13.031Z,2.15
2018-09-15T11:46:41.205Z,3.12
2018-09-15T11:49:09.358Z,2.62
2018-09-15T11:51:37.517Z,3.27
2018-09-15T11:54:05.685Z,3.12
2018-09-15T11:56:33.850Z,2.20
2018-09-15T11:59:02.018Z,2.00
2018-09-15T12:01:30.170Z,3.33
2018-09-15T12:03:58.354Z,3.10
2018-09-15T12:06:26.516Z,3.37
2018-09-15T12:08:54.768Z,2.35
2018-09-15T12:11:22.886Z,2.45
2018-09-15T12:13:51.178Z,3.52
2018-09-15T12:16:19.357Z,3.30
2018-09-15T12:18:47.528Z,3.47
2018-09-15T12:21:15.700Z,2.87
2018-09-15T12:23:44.078Z,3.60
2018-09-15T12:26:12.518Z,2.80
2018-09-15T12:28:40.710Z,2.47
2018-09-15T12:31:08.894Z,3.22
2018-09-15T12:33:37.139Z,3.92
2018-09-15T12:36:05.314Z,1.98
2018-09-15T12:38:33.489Z,3.50
2018-09-15T12:41:01.679Z,2.72
2018-09-15T12:43:29.850Z,2.60
2018-09-15T12:45:57.989Z,3.45
2018-09-15T12:48:26.169Z,2.42
2018-09-15T12:50:54.322Z,2.75
2018-09-15T12:53:22.478Z,2.62
2018-09-15T12:55:50.655Z,2.45
2018-09-15T12:58:18.809Z,2.65
2018-09-15T13:00:47.005Z,3.30
2018-09-15T13:03:15.164Z,2.85
2018-09-15T13:05:43.322Z,2.12
2018-09-15T13:08:11.503Z,2.42
2018-09-15T13:10:39.671Z,2.35
2018-09-15T13:13:07.863Z,2.33
2018-09-15T13:15:36.080Z,2.30
2018-09-15T13:18:04.194Z,3.75
2018-09-15T13:20:32.366Z,3.12
2018-09-15T13:23:00.809Z,2.30
2018-09-15T13:25:29.317Z,2.20
2018-09-15T13:27:57.616Z,2.85
2018-09-15T13:30:25.848Z,2.90
2018-09-15T13:32:53.946Z,4.03
2018-09-15T13:35:22.163Z,4.22
2018-09-15T13:37:50.390Z,3.60
2018-09-15T13:40:18.558Z,3.08
2018-09-15T13:42:46.725Z,3.17
2018-09-15T13:45:14.891Z,3.80
2018-09-15T13:47:43.066Z,2.85
2018-09-15T13:50:11.266Z,3.30
2018-09-15T13:52:39.434Z,2.25
2018-09-15T13:55:07.650Z,2.95
2018-09-15T13:57:35.826Z,2.95
2018-09-15T14:00:04.454Z,2.30
2018-09-15T14:02:36.048Z,2.75
2018-09-15T14:05:04.662Z,2.17
2018-09-15T14:07:32.887Z,2.85
2018-09-15T14:10:07.044Z,2.20
2018-09-15T14:12:29.279Z,1.70
2018-09-15T14:14:57.470Z,2.02
2018-09-15T14:17:25.667Z,2.83
2018-09-15T14:19:53.859Z,2.10
2018-09-15T14:22:22.193Z,3.25
2018-09-15T14:24:50.333Z,3.10
2018-09-15T14:27:18.497Z,2.33
2018-09-15T14:29:46.711Z,2.77
2018-09-15T14:32:14.865Z,2.67
2018-09-15T14:34:43.023Z,2.00
2018-09-15T14:37:11.292Z,2.83
2018-09-15T14:39:39.466Z,1.50
2018-09-15T14:42:07.666Z,1.37
2018-09-15T14:44:35.850Z,1.85
2018-09-15T14:47:04.022Z,1.57
2018-09-15T14:49:32.197Z,1.77
2018-09-15T14:52:00.820Z,2.02
2018-09-15T14:54:28.979Z,1.45
2018-09-15T14:56:57.342Z,2.60
2018-09-15T14:59:25.544Z,2.58
2018-09-15T15:01:53.713Z,2.08
2018-09-15T15:04:21.998Z,1.80
2018-09-15T15:06:50.146Z,1.65
2018-09-15T15:09:18.435Z,1.85
2018-09-15T15:11:46.614Z,2.10
2018-09-15T15:14:14.840Z,1.90
2018-09-15T15:16:43.067Z,1.95
2018-09-15T15:19:11.300Z,2.10
2018-09-15T15:21:39.471Z,1.87
2018-09-15T15:24:07.812Z,1.95
2018-09-15T15:26:36.100Z,1.82
2018-09-15T15:29:04.190Z,1.10
2018-09-15T15:31:32.411Z,1.62
2018-09-15T15:34:00.507Z,1.95
2018-09-15T15:36:28.710Z,2.33
2018-09-15T15:38:57.672Z,1.52
2018-09-15T15:41:25.870Z,2.20
2018-09-15T15:43:54.231Z,1.95
2018-09-15T15:46:22.471Z,2.00
2018-09-15T15:48:50.626Z,2.45
2018-09-15T15:51:18.845Z,2.00
2018-09-15T15:53:46.942Z,1.70
2018-09-15T15:56:15.114Z,1.50
2018-09-15T15:58:43.812Z,1.72
2018-09-15T16:01:11.993Z,2.10
2018-09-15T16:03:40.354Z,1.72
2018-09-15T16:06:08.596Z,1.77
2018-09-15T16:08:36.750Z,1.82
2018-09-15T16:11:05.042Z,2.12
2018-09-15T16:13:33.302Z,2.72
2018-09-15T16:16:01.480Z,2.75
2018-09-15T16:18:29.762Z,3.10
2018-09-15T16:20:57.997Z,2.87
2018-09-15T16:23:26.198Z,2.30
2018-09-15T16:25:54.442Z,2.90
2018-09-15T16:28:22.642Z,2.20
2018-09-15T16:30:50.906Z,2.30
2018-09-15T16:33:19.062Z,2.62
2018-09-15T16:35:47.254Z,2.90
2018-09-15T16:38:15.886Z,2.50
2018-09-15T16:40:44.243Z,2.17
2018-09-15T16:43:12.272Z,3.15
2018-09-15T16:45:40.447Z,2.60
2018-09-15T16:48:08.701Z,2.08
2018-09-15T16:50:37.055Z,1.82
2018-09-15T16:53:05.567Z,2.37
2018-09-15T16:55:34.066Z,2.40
2018-09-15T16:58:02.332Z,1.80
2018-09-15T17:00:30.991Z,2.17
2018-09-15T17:02:59.905Z,1.60
2018-09-15T17:05:28.198Z,2.22
2018-09-15T17:07:56.411Z,1.75
2018-09-15T17:10:24.578Z,1.82
2018-09-15T17:12:52.712Z,1.80
2018-09-15T17:15:20.851Z,1.47
2018-09-15T17:17:54.197Z,1.80
2018-09-15T17:20:22.426Z,1.15
2018-09-15T17:22:50.652Z,1.65
2018-09-15T17:25:19.116Z,1.35
2018-09-15T17:27:47.470Z,1.70
2018-09-15T17:30:15.962Z,1.30
2018-09-15T17:32:44.276Z,1.40
2018-09-15T17:35:12.537Z,1.20
2018-09-15T17:37:40.834Z,1.85
2018-09-15T17:40:09.190Z,1.67
2018-09-15T17:42:37.435Z,1.37
2018-09-15T17:45:05.775Z,1.40
2018-09-15T17:47:33.942Z,1.50
2018-09-15T17:50:02.116Z,1.47
2018-09-15T17:52:30.401Z,1.20
2018-09-15T17:54:58.605Z,1.50
2018-09-15T17:57:28.166Z,1.47
2018-09-15T17:59:56.357Z,1.90
2018-09-15T18:02:24.538Z,0.98
2018-09-15T18:04:52.840Z,1.37
2018-09-15T18:07:21.099Z,1.80
2018-09-15T18:09:49.519Z,1.80
2018-09-15T18:12:17.846Z,1.15
2018-09-15T18:14:46.130Z,1.32
2018-09-15T18:17:14.300Z,1.07
2018-09-15T18:19:42.678Z,1.20
2018-09-15T18:22:10.980Z,1.22
2018-09-15T18:24:39.187Z,1.50
2018-09-15T18:27:07.458Z,1.60
2018-09-15T18:29:35.675Z,1.70
2018-09-15T18:32:03.891Z,1.80
2018-09-15T18:34:32.125Z,1.60
2018-09-15T18:37:00.517Z,1.40
2018-09-15T18:39:28.641Z,1.50
2018-09-15T18:41:57.058Z,1.80
2018-09-15T18:44:25.225Z,1.55
2018-09-15T18:46:53.599Z,0.90
2018-09-15T18:49:21.842Z,1.90
2018-09-15T18:51:50.132Z,1.60
2018-09-15T18:54:18.597Z,1.30
2018-09-15T18:56:46.889Z,1.45
2018-09-15T18:59:15.166Z,1.62
2018-09-15T19:01:43.462Z,1.70
2018-09-15T19:04:11.694Z,1.45
2018-09-15T19:06:39.867Z,1.20
2018-09-15T19:09:10.073Z,1.47
2018-09-15T19:11:38.328Z,1.12
2018-09-15T19:14:06.615Z,1.27
2018-09-15T19:16:34.981Z,1.70
2018-09-15T19:19:03.192Z,1.40
2018-09-15T19:21:31.479Z,1.55
2018-09-15T19:23:59.770Z,1.10
2018-09-15T19:26:28.044Z,1.30
2018-09-15T19:28:57.131Z,1.40
2018-09-15T19:31:25.416Z,1.47
2018-09-15T19:33:53.866Z,1.22
2018-09-15T19:36:22.129Z,1.45
2018-09-15T19:38:50.442Z,1.20
2018-09-15T19:41:18.740Z,1.22
2018-09-15T19:43:47.130Z,1.72
2018-09-15T19:46:15.450Z,1.32
2018-09-15T19:48:43.634Z,1.60
2018-09-15T19:51:11.853Z,1.50
2018-09-15T19:53:40.082Z,1.40
2018-09-15T19:56:08.331Z,1.60
2018-09-15T19:58:36.568Z,1.22
2018-09-15T20:01:04.798Z,1.82
2018-09-15T20:03:33.050Z,1.50
2018-09-15T20:06:01.424Z,1.22
2018-09-15T20:08:29.578Z,1.30
2018-09-15T20:10:57.747Z,2.12
2018-09-15T20:13:26.020Z,1.65
2018-09-15T20:15:53.195Z,1.30
2018-09-15T20:18:20.371Z,2.02
2018-09-15T20:20:47.562Z,1.67
2018-09-15T20:23:15.730Z,2.15
2018-09-15T20:25:43.885Z,2.10
2018-09-15T20:28:12.079Z,1.40
2018-09-15T20:30:40.218Z,1.75
2018-09-15T20:33:08.474Z,1.35
2018-09-15T20:35:36.548Z,2.12
2018-09-15T20:38:04.713Z,2.00
2018-09-15T20:40:32.994Z,1.60
2018-09-15T20:43:01.054Z,1.98
2018-09-15T20:45:29.223Z,1.50
2018-09-15T20:47:57.406Z,1.67
2018-09-15T20:50:25.544Z,2.15
2018-09-15T20:52:53.694Z,2.10
2018-09-15T20:55:21.837Z,2.35
2018-09-15T20:57:50.001Z,2.05
2018-09-15T21:00:18.174Z,2.00
2018-09-15T21:02:46.358Z,2.65
2018-09-15T21:05:14.518Z,1.57
2018-09-15T21:07:42.720Z,2.30
2018-09-15T21:10:10.909Z,1.80
2018-09-15T21:12:39.070Z,2.12
2018-09-15T21:15:07.254Z,2.30
2018-09-15T21:17:35.490Z,2.55
2018-09-15T21:20:03.695Z,2.25
2018-09-15T21:22:31.999Z,1.80
2018-09-15T21:25:00.400Z,1.80
2018-09-15T21:27:28.650Z,2.15
2018-09-15T21:29:56.894Z,1.92
2018-09-15T21:32:25.175Z,1.45
2018-09-15T21:34:53.398Z,2.17
2018-09-15T21:37:21.834Z,1.90
2018-09-15T21:39:49.990Z,1.80
2018-09-15T21:42:18.175Z,2.35
2018-09-15T21:44:46.350Z,2.60
2018-09-15T21:47:14.486Z,2.00
2018-09-15T21:49:42.682Z,2.27
2018-09-15T21:52:10.850Z,1.80
2018-09-15T21:54:39.002Z,2.27
2018-09-15T21:57:07.168Z,1.90
2018-09-15T21:59:35.849Z,1.85
2018-09-15T22:02:04.043Z,1.77
2018-09-15T22:04:32.218Z,2.12
2018-09-15T22:07:00.410Z,1.72
2018-09-15T22:09:28.636Z,2.67
2018-09-15T22:11:56.758Z,2.70
2018-09-15T22:14:25.068Z,1.92
2018-09-15T22:16:53.258Z,2.75
2018-09-15T22:19:21.406Z,2.20
2018-09-15T22:21:49.778Z,2.15
2018-09-15T22:24:18.315Z,1.70
2018-09-15T22:26:46.686Z,1.82
2018-09-15T22:29:14.884Z,1.82
2018-09-15T22:31:43.065Z,1.80
2018-09-15T22:34:11.311Z,2.42
2018-09-15T22:36:39.404Z,2.00
2018-09-15T22:39:08.750Z,2.00
2018-09-15T22:41:37.399Z,2.47
2018-09-15T22:44:05.597Z,2.75
2018-09-15T22:46:33.760Z,1.65
2018-09-15T22:49:01.927Z,2.40
2018-09-15T22:51:30.098Z,2.08
2018-09-15T22:53:58.416Z,2.70
2018-09-15T22:56:26.918Z,1.90
2018-09-15T22:58:55.194Z,1.82
2018-09-15T23:01:23.690Z,2.27
2018-09-15T23:03:56.247Z,2.37
2018-09-15T23:06:24.518Z,2.50
2018-09-15T23:08:52.658Z,3.08
2018-09-15T23:11:20.810Z,2.42
2018-09-15T23:13:48.960Z,1.87
2018-09-15T23:16:17.107Z,2.90
2018-09-15T23:18:45.279Z,2.33
2018-09-15T23:21:13.439Z,2.52
2018-09-15T23:23:41.594Z,2.40
2018-09-15T23:26:09.753Z,2.58
2018-09-15T23:28:38.016Z,2.42
2018-09-15T23:31:06.166Z,2.22
2018-09-15T23:33:34.318Z,1.80
2018-09-15T23:36:02.474Z,2.95
2018-09-15T23:38:30.686Z,3.60
2018-09-15T23:40:59.643Z,3.20
2018-09-15T23:43:27.779Z,2.33
2018-09-15T23:45:55.962Z,3.17
2018-09-15T23:48:24.163Z,2.67
2018-09-15T23:50:52.423Z,2.12
2018-09-15T23:53:20.570Z,3.60
2018-09-15T23:55:48.726Z,2.95
2018-09-15T23:58:16.866Z,2.60
